Terminal Aerodrome Forecast
Issued by NWS Shreveport, LA

Home | Current Version | Previous Version | Text Only | Print | Product List | Glossary On
Versions: 1 2 3 4 5 6 7 8 9 10 11 12
005
FTUS44 KSHV 030551
TAFGGG
TAF
KGGG 030551Z 0306/0406 10010KT P6SM -RA OVC110
     FM031000 08008KT 5SM RA OVC030
     FM031200 07010KT 4SM -RA OVC015
     FM031500 09013KT 4SM -RA BR OVC007
     FM040300 07011KT 4SM BR OVC004=

USA.gov is the U.S. government's official web portal to all federal, state and local government web resources and services.